sensor_id;sensor_type;location;lat;lon;timestamp;P1;P4;P2;P0;N10;N4;N25;N1;N05;TS
68492;SPS30;55483;51.106;5.984;2023-09-19T00:02:16;3.11;2.88;2.47;1.84;14.75;14.72;14.61;14.02;11.35;0.66
68492;SPS30;55483;51.106;5.984;2023-09-19T00:04:42;3.96;3.62;3.02;2.14;17.19;17.15;17.00;16.15;12.84;0.70
68492;SPS30;55483;51.106;5.984;2023-09-19T00:07:08;3.92;3.58;2.96;2.06;16.54;16.50;16.34;15.48;12.22;0.71
68492;SPS30;55483;51.106;5.984;2023-09-19T00:09:34;3.67;3.36;2.79;1.96;15.73;15.69;15.55;14.75;11.69;0.71
68492;SPS30;55483;51.106;5.984;2023-09-19T00:12:06;3.36;3.09;2.60;1.88;15.09;15.06;14.93;14.24;11.41;0.68
68492;SPS30;55483;51.106;5.984;2023-09-19T00:14:34;3.07;2.84;2.43;1.82;14.59;14.57;14.46;13.88;11.25;0.68
68492;SPS30;55483;51.106;5.984;2023-09-19T00:17:01;3.20;2.99;2.60;2.01;16.10;16.08;15.98;15.43;12.64;0.65
68492;SPS30;55483;51.106;5.984;2023-09-19T00:19:33;3.09;2.89;2.53;1.96;15.75;15.73;15.63;15.11;12.40;0.63
68492;SPS30;55483;51.106;5.984;2023-09-19T00:21:59;3.29;3.04;2.60;1.93;15.48;15.46;15.34;14.71;11.90;0.68
68492;SPS30;55483;51.106;5.984;2023-09-19T00:24:26;3.35;3.10;2.64;1.95;15.69;15.66;15.54;14.89;12.03;0.68
68492;SPS30;55483;51.106;5.984;2023-09-19T00:26:53;3.71;3.42;2.88;2.09;16.79;16.75;16.62;15.86;12.72;0.70
68492;SPS30;55483;51.106;5.984;2023-09-19T00:29:20;3.45;3.18;2.68;1.95;15.64;15.61;15.48;14.78;11.86;0.71
68492;SPS30;55483;51.106;5.984;2023-09-19T00:31:46;3.54;3.26;2.74;1.98;15.90;15.86;15.73;15.00;12.01;0.70
68492;SPS30;55483;51.106;5.984;2023-09-19T00:34:12;3.46;3.19;2.69;1.95;15.66;15.63;15.50;14.79;11.86;0.68
68492;SPS30;55483;51.106;5.984;2023-09-19T00:36:37;3.18;2.95;2.53;1.89;15.17;15.14;15.03;14.43;11.70;0.65
68492;SPS30;55483;51.106;5.984;2023-09-19T00:39:08;2.85;2.66;2.32;1.79;14.36;14.34;14.25;13.76;11.27;0.64
68492;SPS30;55483;51.106;5.984;2023-09-19T00:41:34;3.45;3.21;2.76;2.08;16.69;16.66;16.54;15.91;12.93;0.67
68492;SPS30;55483;51.106;5.984;2023-09-19T00:44:03;3.33;3.08;2.62;1.93;15.48;15.45;15.33;14.68;11.84;0.71
68492;SPS30;55483;51.106;5.984;2023-09-19T00:46:30;3.44;3.17;2.66;1.92;15.39;15.36;15.23;14.51;11.61;0.73
68492;SPS30;55483;51.106;5.984;2023-09-19T00:48:57;3.41;3.11;2.57;1.79;14.37;14.34;14.20;13.45;10.62;0.74
68492;SPS30;55483;51.106;5.984;2023-09-19T00:51:24;3.56;3.26;2.70;1.90;15.26;15.23;15.09;14.31;11.34;0.73
68492;SPS30;55483;51.106;5.984;2023-09-19T00:53:52;3.94;3.60;2.97;2.06;16.59;16.55;16.38;15.51;12.24;0.72
68492;SPS30;55483;51.106;5.984;2023-09-19T00:56:19;3.29;3.02;2.55;1.84;14.81;14.78;14.66;13.99;11.21;0.67
68492;SPS30;55483;51.106;5.984;2023-09-19T00:58:46;3.53;3.24;2.72;1.96;15.74;15.71;15.57;14.84;11.87;0.68
68492;SPS30;55483;51.106;5.984;2023-09-19T01:01:13;3.69;3.38;2.83;2.02;16.25;16.21;16.07;15.29;12.20;0.70
68492;SPS30;55483;51.106;5.984;2023-09-19T01:03:42;3.08;2.85;2.42;1.79;14.37;14.34;14.23;13.63;11.00;0.67
68492;SPS30;55483;51.106;5.984;2023-09-19T01:06:09;3.27;3.02;2.58;1.91;15.36;15.33;15.22;14.59;11.79;0.67
68492;SPS30;55483;51.106;5.984;2023-09-19T01:08:38;3.75;3.44;2.88;2.06;16.55;16.51;16.37;15.58;12.43;0.70
68492;SPS30;55483;51.106;5.984;2023-09-19T01:11:10;3.39;3.12;2.64;1.92;15.39;15.36;15.24;14.55;11.68;0.69
68492;SPS30;55483;51.106;5.984;2023-09-19T01:13:55;3.30;3.07;2.63;1.98;15.89;15.86;15.75;15.14;12.29;0.68
68492;SPS30;55483;51.106;5.984;2023-09-19T01:22:06;3.08;2.86;2.47;1.87;15.01;14.98;14.88;14.32;11.66;0.67
68492;SPS30;55483;51.106;5.984;2023-09-19T01:25:07;3.35;3.10;2.65;1.97;15.83;15.80;15.69;15.05;12.18;0.67
68492;SPS30;55483;51.106;5.984;2023-09-19T01:30:35;3.65;3.32;2.72;1.86;14.96;14.92;14.77;13.94;10.93;0.71
68492;SPS30;55483;51.106;5.984;2023-09-19T01:33:08;3.31;3.04;2.55;1.83;14.74;14.70;14.58;13.89;11.10;0.68
68492;SPS30;55483;51.106;5.984;2023-09-19T01:35:37;3.51;3.23;2.71;1.96;15.74;15.71;15.57;14.85;11.89;0.69
68492;SPS30;55483;51.106;5.984;2023-09-19T01:38:04;3.03;2.79;2.36;1.71;13.76;13.73;13.62;13.01;10.45;0.69
68492;SPS30;55483;51.106;5.984;2023-09-19T01:40:34;3.33;3.07;2.60;1.90;15.27;15.24;15.12;14.45;11.63;0.70
68492;SPS30;55483;51.106;5.984;2023-09-19T01:43:09;3.21;2.96;2.52;1.86;14.89;14.87;14.75;14.12;11.39;0.69
68492;SPS30;55483;51.106;5.984;2023-09-19T01:48:40;3.50;3.21;2.68;1.90;15.28;15.24;15.11;14.36;11.43;0.72
68492;SPS30;55483;51.106;5.984;2023-09-19T01:51:18;3.39;3.12;2.63;1.90;15.22;15.19;15.06;14.37;11.50;0.70
68492;SPS30;55483;51.106;5.984;2023-09-19T01:54:12;3.12;2.87;2.41;1.73;13.90;13.87;13.75;13.10;10.47;0.71
68492;SPS30;55483;51.106;5.984;2023-09-19T01:56:49;3.35;3.06;2.55;1.79;14.41;14.37;14.24;13.52;10.72;0.73
68492;SPS30;55483;51.106;5.984;2023-09-19T01:59:31;3.43;3.13;2.58;1.80;14.43;14.40;14.26;13.50;10.65;0.74
68492;SPS30;55483;51.106;5.984;2023-09-19T02:02:03;3.90;3.55;2.92;2.02;16.21;16.17;16.01;15.13;11.91;0.75
68492;SPS30;55483;51.106;5.984;2023-09-19T02:04:34;3.46;3.16;2.63;1.85;14.86;14.82;14.68;13.94;11.05;0.74
68492;SPS30;55483;51.106;5.984;2023-09-19T02:07:00;3.29;3.02;2.53;1.81;14.53;14.50;14.38;13.69;10.93;0.72
68492;SPS30;55483;51.106;5.984;2023-09-19T02:09:27;3.14;2.89;2.43;1.75;14.03;14.00;13.88;13.23;10.58;0.71
68492;SPS30;55483;51.106;5.984;2023-09-19T02:11:53;3.44;3.16;2.65;1.91;15.34;15.31;15.18;14.47;11.57;0.72
68492;SPS30;55483;51.106;5.984;2023-09-19T02:14:21;3.35;3.07;2.57;1.84;14.77;14.74;14.61;13.91;11.09;0.72
68492;SPS30;55483;51.106;5.984;2023-09-19T02:16:47;3.40;3.11;2.59;1.82;14.67;14.63;14.50;13.77;10.93;0.73
68492;SPS30;55483;51.106;5.984;2023-09-19T02:19:15;3.56;3.25;2.70;1.89;15.16;15.13;14.98;14.20;11.24;0.72
68492;SPS30;55483;51.106;5.984;2023-09-19T02:21:42;3.34;3.07;2.58;1.85;14.84;14.81;14.68;13.99;11.17;0.70
68492;SPS30;55483;51.106;5.984;2023-09-19T02:24:08;3.19;2.94;2.47;1.78;14.30;14.27;14.15;13.49;10.80;0.70
68492;SPS30;55483;51.106;5.984;2023-09-19T02:26:33;3.60;3.30;2.76;1.98;15.89;15.86;15.72;14.97;11.94;0.70
68492;SPS30;55483;51.106;5.984;2023-09-19T02:29:01;3.06;2.82;2.39;1.75;14.08;14.06;13.95;13.34;10.74;0.68
68492;SPS30;55483;51.106;5.984;2023-09-19T02:31:28;3.35;3.09;2.61;1.91;15.32;15.29;15.16;14.49;11.65;0.69
68492;SPS30;55483;51.106;5.984;2023-09-19T02:33:54;3.40;3.13;2.64;1.92;15.41;15.38;15.25;14.57;11.69;0.69
68492;SPS30;55483;51.106;5.984;2023-09-19T02:36:21;2.89;2.66;2.23;1.61;12.95;12.92;12.81;12.22;9.78;0.69
68492;SPS30;55483;51.106;5.984;2023-09-19T02:38:46;3.49;3.20;2.67;1.90;15.25;15.22;15.08;14.34;11.42;0.70
68492;SPS30;55483;51.106;5.984;2023-09-19T02:41:12;3.81;3.48;2.89;2.03;16.31;16.28;16.12;15.30;12.12;0.71
68492;SPS30;55483;51.106;5.984;2023-09-19T02:43:37;3.80;3.47;2.88;2.03;16.29;16.25;16.10;15.28;12.11;0.71
68492;SPS30;55483;51.106;5.984;2023-09-19T02:46:03;3.11;2.84;2.34;1.62;13.06;13.03;12.90;12.21;9.63;0.73
68492;SPS30;55483;51.106;5.984;2023-09-19T02:48:29;3.49;3.18;2.62;1.82;14.60;14.56;14.42;13.63;10.74;0.73
68492;SPS30;55483;51.106;5.984;2023-09-19T02:50:54;3.59;3.29;2.73;1.91;15.39;15.35;15.21;14.43;11.43;0.70
68492;SPS30;55483;51.106;5.984;2023-09-19T02:53:20;3.90;3.55;2.92;2.01;16.18;16.14;15.98;15.10;11.87;0.72
68492;SPS30;55483;51.106;5.984;2023-09-19T02:55:46;3.45;3.16;2.64;1.88;15.14;15.10;14.97;14.24;11.35;0.71
68492;SPS30;55483;51.106;5.984;2023-09-19T02:58:12;3.78;3.46;2.88;2.02;16.27;16.23;16.08;15.26;12.10;0.73
68492;SPS30;55483;51.106;5.984;2023-09-19T03:00:39;3.68;3.38;2.83;2.02;16.27;16.23;16.09;15.32;12.22;0.72
68492;SPS30;55483;51.106;5.984;2023-09-19T03:03:07;3.94;3.59;2.96;2.05;16.46;16.42;16.26;15.38;12.12;0.73
68492;SPS30;55483;51.106;5.984;2023-09-19T03:05:33;3.69;3.34;2.72;1.84;14.79;14.75;14.59;13.73;10.70;0.74
68492;SPS30;55483;51.106;5.984;2023-09-19T03:07:59;3.51;3.18;2.59;1.75;14.12;14.08;13.93;13.11;10.24;0.74
68492;SPS30;55483;51.106;5.984;2023-09-19T03:10:26;3.92;3.56;2.90;1.96;15.79;15.74;15.57;14.66;11.45;0.75
68492;SPS30;55483;51.106;5.984;2023-09-19T03:12:54;4.20;3.82;3.13;2.14;17.25;17.20;17.03;16.07;12.61;0.75
68492;SPS30;55483;51.106;5.984;2023-09-19T03:15:20;3.39;3.09;2.55;1.77;14.25;14.22;14.08;13.32;10.51;0.73
68492;SPS30;55483;51.106;5.984;2023-09-19T03:17:48;3.61;3.29;2.71;1.87;15.06;15.02;14.88;14.07;11.08;0.73
68492;SPS30;55483;51.106;5.984;2023-09-19T03:20:19;3.76;3.42;2.80;1.91;15.40;15.36;15.20;14.34;11.24;0.75
68492;SPS30;55483;51.106;5.984;2023-09-19T03:22:46;3.70;3.36;2.73;1.84;14.80;14.76;14.60;13.73;10.70;0.76
68492;SPS30;55483;51.106;5.984;2023-09-19T03:25:13;3.96;3.59;2.91;1.95;15.71;15.67;15.50;14.56;11.32;0.76
68492;SPS30;55483;51.106;5.984;2023-09-19T03:27:40;4.08;3.71;3.05;2.09;16.81;16.76;16.59;15.66;12.30;0.74
68492;SPS30;55483;51.106;5.984;2023-09-19T03:30:06;4.13;3.78;3.13;2.20;17.65;17.61;17.44;16.54;13.10;0.72
68492;SPS30;55483;51.106;5.984;2023-09-19T03:32:47;3.88;3.53;2.89;1.98;15.90;15.86;15.69;14.81;11.61;0.73
68492;SPS30;55483;51.106;5.984;2023-09-19T03:35:15;4.05;3.69;3.03;2.09;16.82;16.78;16.61;15.70;12.35;0.73
68492;SPS30;55483;51.106;5.984;2023-09-19T03:37:42;4.51;4.11;3.36;2.30;18.48;18.44;18.24;17.21;13.49;0.74
68492;SPS30;55483;51.106;5.984;2023-09-19T03:40:09;3.82;3.47;2.82;1.89;15.22;15.17;15.01;14.10;10.98;0.74
68492;SPS30;55483;51.106;5.984;2023-09-19T03:42:39;4.40;3.99;3.25;2.19;17.61;17.56;17.37;16.34;12.73;0.72
68492;SPS30;55483;51.106;5.984;2023-09-19T03:45:09;4.02;3.69;3.08;2.19;17.63;17.59;17.43;16.58;13.21;0.70
68492;SPS30;55483;51.106;5.984;2023-09-19T03:47:38;3.93;3.60;2.99;2.10;16.87;16.83;16.68;15.82;12.55;0.71
68492;SPS30;55483;51.106;5.984;2023-09-19T03:50:05;3.85;3.52;2.93;2.06;16.56;16.52;16.37;15.53;12.32;0.71
68492;SPS30;55483;51.106;5.984;2023-09-19T03:52:34;3.99;3.64;2.99;2.07;16.65;16.61;16.45;15.55;12.25;0.73
68492;SPS30;55483;51.106;5.984;2023-09-19T03:55:00;3.86;3.53;2.93;2.05;16.47;16.43;16.28;15.43;12.22;0.74
68492;SPS30;55483;51.106;5.984;2023-09-19T03:57:28;4.25;3.88;3.20;2.22;17.85;17.81;17.63;16.69;13.16;0.73
68492;SPS30;55483;51.106;5.984;2023-09-19T03:59:53;3.89;3.57;2.97;2.10;16.88;16.84;16.69;15.86;12.60;0.72
68492;SPS30;55483;51.106;5.984;2023-09-19T04:02:20;4.08;3.74;3.11;2.20;17.67;17.63;17.47;16.59;13.18;0.74
68492;SPS30;55483;51.106;5.984;2023-09-19T04:04:49;4.11;3.75;3.11;2.17;17.46;17.42;17.26;16.35;12.94;0.74
68492;SPS30;55483;51.106;5.984;2023-09-19T04:07:16;3.96;3.61;2.98;2.07;16.61;16.57;16.41;15.52;12.24;0.73
68492;SPS30;55483;51.106;5.984;2023-09-19T04:09:42;3.88;3.54;2.94;2.06;16.58;16.54;16.39;15.54;12.31;0.72
68492;SPS30;55483;51.106;5.984;2023-09-19T04:12:07;3.73;3.43;2.88;2.07;16.66;16.62;16.48;15.71;12.57;0.70
68492;SPS30;55483;51.106;5.984;2023-09-19T04:14:36;3.47;3.19;2.68;1.94;15.57;15.54;15.41;14.69;11.77;0.70
68492;SPS30;55483;51.106;5.984;2023-09-19T04:17:02;4.01;3.67;3.06;2.17;17.44;17.40;17.24;16.38;13.03;0.72
68492;SPS30;55483;51.106;5.984;2023-09-19T04:19:28;3.74;3.40;2.78;1.90;15.30;15.26;15.11;14.25;11.17;0.75
68492;SPS30;55483;51.106;5.984;2023-09-19T04:21:54;4.41;3.97;3.17;2.05;16.54;16.49;16.28;15.18;11.63;0.77
68492;SPS30;55483;51.106;5.984;2023-09-19T04:24:19;4.33;3.89;3.09;1.98;15.94;15.89;15.68;14.58;11.11;0.76
68492;SPS30;55483;51.106;5.984;2023-09-19T04:26:45;4.37;3.94;3.17;2.09;16.81;16.76;16.57;15.50;11.96;0.75
68492;SPS30;55483;51.106;5.984;2023-09-19T04:29:11;4.21;3.79;3.03;1.97;15.85;15.80;15.61;14.56;11.16;0.76
68492;SPS30;55483;51.106;5.984;2023-09-19T04:31:39;4.49;4.04;3.22;2.08;16.75;16.70;16.49;15.36;11.74;0.78
68492;SPS30;55483;51.106;5.984;2023-09-19T04:34:05;4.87;4.37;3.47;2.21;17.78;17.72;17.49;16.24;12.35;0.78
68492;SPS30;55483;51.106;5.984;2023-09-19T04:36:31;4.69;4.22;3.36;2.16;17.43;17.37;17.16;15.98;12.20;0.76
68492;SPS30;55483;51.106;5.984;2023-09-19T04:38:57;4.51;4.05;3.23;2.07;16.71;16.66;16.45;15.31;11.69;0.76
68492;SPS30;55483;51.106;5.984;2023-09-19T04:41:22;4.29;3.87;3.11;2.05;16.49;16.44;16.25;15.20;11.72;0.75
68492;SPS30;55483;51.106;5.984;2023-09-19T04:43:48;4.45;4.05;3.31;2.26;18.20;18.16;17.97;16.95;13.28;0.73
68492;SPS30;55483;51.106;5.984;2023-09-19T04:46:16;4.14;3.77;3.09;2.13;17.12;17.07;16.90;15.96;12.55;0.73
68492;SPS30;55483;51.106;5.984;2023-09-19T04:48:42;3.97;3.61;2.95;2.02;16.23;16.19;16.02;15.12;11.85;0.74
68492;SPS30;55483;51.106;5.984;2023-09-19T04:51:08;4.19;3.81;3.11;2.11;16.99;16.95;16.77;15.80;12.35;0.75
68492;SPS30;55483;51.106;5.984;2023-09-19T04:53:35;4.24;3.88;3.23;2.27;18.27;18.23;18.06;17.14;13.60;0.74
68492;SPS30;55483;51.106;5.984;2023-09-19T04:56:01;4.36;3.96;3.23;2.19;17.65;17.61;17.42;16.41;12.83;0.76
68492;SPS30;55483;51.106;5.984;2023-09-19T04:58:28;4.23;3.81;3.05;1.98;15.94;15.89;15.69;14.64;11.23;0.79
68492;SPS30;55483;51.106;5.984;2023-09-19T05:00:55;4.74;4.25;3.36;2.12;17.10;17.05;16.82;15.59;11.81;0.80
68492;SPS30;55483;51.106;5.984;2023-09-19T05:03:21;4.40;3.93;3.07;1.89;15.22;15.16;14.94;13.76;10.28;0.82
68492;SPS30;55483;51.106;5.984;2023-09-19T05:05:47;4.67;4.18;3.30;2.07;16.67;16.61;16.39;15.17;11.45;0.81
68492;SPS30;55483;51.106;5.984;2023-09-19T05:08:13;4.16;3.72;2.91;1.80;14.55;14.50;14.30;13.19;9.90;0.82
68492;SPS30;55483;51.106;5.984;2023-09-19T05:10:40;4.48;4.03;3.22;2.08;16.75;16.70;16.49;15.36;11.75;0.78
68492;SPS30;55483;51.106;5.984;2023-09-19T05:13:05;4.40;3.96;3.16;2.04;16.43;16.38;16.17;15.07;11.53;0.79
68492;SPS30;55483;51.106;5.984;2023-09-19T05:15:33;4.22;3.80;3.02;1.93;15.57;15.52;15.32;14.25;10.86;0.79
68492;SPS30;55483;51.106;5.984;2023-09-19T05:17:58;4.58;4.15;3.37;2.26;18.19;18.14;17.94;16.86;13.11;0.76
68492;SPS30;55483;51.106;5.984;2023-09-19T05:20:24;3.95;3.57;2.88;1.90;15.29;15.24;15.06;14.10;10.89;0.77
68492;SPS30;55483;51.106;5.984;2023-09-19T05:23:05;3.83;3.46;2.79;1.83;14.76;14.72;14.55;13.61;10.50;0.77
68492;SPS30;55483;51.106;5.984;2023-09-19T05:25:34;4.11;3.72;3.00;1.99;15.98;15.94;15.75;14.76;11.41;0.77
68492;SPS30;55483;51.106;5.984;2023-09-19T05:28:08;3.83;3.46;2.81;1.88;15.12;15.08;14.91;14.00;10.88;0.77
68492;SPS30;55483;51.106;5.984;2023-09-19T05:30:36;4.20;3.78;3.02;1.96;15.78;15.74;15.54;14.49;11.11;0.79
68492;SPS30;55483;51.106;5.984;2023-09-19T05:33:06;4.52;4.07;3.27;2.14;17.22;17.17;16.96;15.85;12.19;0.79
68492;SPS30;55483;51.106;5.984;2023-09-19T05:35:33;3.96;3.58;2.89;1.92;15.46;15.41;15.24;14.28;11.06;0.77
68492;SPS30;55483;51.106;5.984;2023-09-19T05:37:59;3.93;3.58;2.92;1.99;16.01;15.97;15.80;14.89;11.66;0.76
68492;SPS30;55483;51.106;5.984;2023-09-19T05:40:25;3.70;3.36;2.73;1.84;14.84;14.80;14.64;13.78;10.75;0.76
68492;SPS30;55483;51.106;5.984;2023-09-19T05:42:51;3.68;3.35;2.76;1.91;15.34;15.30;15.15;14.32;11.28;0.74
68492;SPS30;55483;51.106;5.984;2023-09-19T05:45:17;3.61;3.27;2.65;1.78;14.31;14.27;14.11;13.25;10.30;0.76
68492;SPS30;55483;51.106;5.984;2023-09-19T05:47:50;3.82;3.45;2.76;1.80;14.53;14.49;14.31;13.37;10.28;0.77
68492;SPS30;55483;51.106;5.984;2023-09-19T05:50:21;3.89;3.52;2.83;1.87;15.06;15.01;14.84;13.89;10.73;0.77
68492;SPS30;55483;51.106;5.984;2023-09-19T05:52:53;3.83;3.46;2.78;1.82;14.67;14.63;14.45;13.51;10.41;0.78
68492;SPS30;55483;51.106;5.984;2023-09-19T05:55:22;4.26;3.82;3.03;1.92;15.45;15.40;15.20;14.10;10.69;0.79
68492;SPS30;55483;51.106;5.984;2023-09-19T05:57:52;4.36;3.88;3.01;1.82;14.71;14.65;14.43;13.25;9.82;0.81
68492;SPS30;55483;51.106;5.984;2023-09-19T06:00:19;4.52;4.02;3.11;1.85;14.96;14.91;14.68;13.42;9.88;0.82
68492;SPS30;55483;51.106;5.984;2023-09-19T06:02:49;4.51;4.03;3.16;1.96;15.79;15.73;15.51;14.31;10.73;0.78
68492;SPS30;55483;51.106;5.984;2023-09-19T06:05:24;3.76;3.38;2.68;1.71;13.75;13.71;13.53;12.57;9.56;0.77
68492;SPS30;55483;51.106;5.984;2023-09-19T06:07:57;4.45;4.03;3.25;2.15;17.30;17.25;17.06;15.98;12.36;0.73
68492;SPS30;55483;51.106;5.984;2023-09-19T06:10:25;3.82;3.46;2.81;1.88;15.12;15.08;14.92;14.01;10.89;0.72
68492;SPS30;55483;51.106;5.984;2023-09-19T06:12:52;3.81;3.46;2.84;1.94;15.61;15.57;15.41;14.53;11.40;0.71
68492;SPS30;55483;51.106;5.984;2023-09-19T06:15:20;3.57;3.24;2.66;1.82;14.63;14.60;14.45;13.63;10.69;0.72
68492;SPS30;55483;51.106;5.984;2023-09-19T06:17:50;4.03;3.64;2.93;1.94;15.60;15.55;15.37;14.40;11.12;0.74
68492;SPS30;55483;51.106;5.984;2023-09-19T06:20:20;3.76;3.41;2.77;1.86;14.97;14.92;14.76;13.87;10.80;0.73
68492;SPS30;55483;51.106;5.984;2023-09-19T06:22:47;4.35;3.94;3.21;2.17;17.43;17.38;17.20;16.18;12.61;0.73
68492;SPS30;55483;51.106;5.984;2023-09-19T06:25:13;3.91;3.54;2.87;1.93;15.50;15.46;15.29;14.37;11.17;0.74
68492;SPS30;55483;51.106;5.984;2023-09-19T06:30:20;3.86;3.51;2.86;1.94;15.59;15.55;15.39;14.49;11.32;0.74
68492;SPS30;55483;51.106;5.984;2023-09-19T06:32:48;4.03;3.66;3.01;2.06;16.57;16.53;16.36;15.44;12.12;0.75
68492;SPS30;55483;51.106;5.984;2023-09-19T06:35:14;3.98;3.61;2.92;1.95;15.72;15.67;15.50;14.55;11.30;0.77
68492;SPS30;55483;51.106;5.984;2023-09-19T06:37:41;4.89;4.41;3.53;2.30;18.54;18.48;18.26;17.05;13.10;0.78
68492;SPS30;55483;51.106;5.984;2023-09-19T06:40:11;4.08;3.69;2.98;1.98;15.90;15.86;15.68;14.69;11.37;0.76
68492;SPS30;55483;51.106;5.984;2023-09-19T06:42:51;4.08;3.70;3.02;2.04;16.41;16.37;16.19;15.24;11.89;0.75
68492;SPS30;55483;51.106;5.984;2023-09-19T06:45:21;3.68;3.34;2.73;1.85;14.90;14.86;14.70;13.85;10.83;0.74
68492;SPS30;55483;51.106;5.984;2023-09-19T06:47:48;3.71;3.39;2.80;1.94;15.62;15.59;15.44;14.61;11.53;0.72
68492;SPS30;55483;51.106;5.984;2023-09-19T06:50:15;3.80;3.48;2.89;2.03;16.30;16.26;16.11;15.29;12.12;0.72
68492;SPS30;55483;51.106;5.984;2023-09-19T06:52:43;3.66;3.35;2.79;1.97;15.87;15.83;15.69;14.90;11.84;0.72
68492;SPS30;55483;51.106;5.984;2023-09-19T06:55:10;3.74;3.41;2.82;1.96;15.78;15.74;15.59;14.76;11.66;0.71
68492;SPS30;55483;51.106;5.984;2023-09-19T06:57:39;3.19;2.92;2.44;1.74;13.96;13.93;13.80;13.13;10.45;0.69
68492;SPS30;55483;51.106;5.984;2023-09-19T07:00:11;4.06;3.70;3.05;2.11;16.98;16.94;16.77;15.86;12.50;0.71
68492;SPS30;55483;51.106;5.984;2023-09-19T07:02:44;4.27;3.87;3.15;2.12;17.06;17.01;16.83;15.83;12.33;0.73
68492;SPS30;55483;51.106;5.984;2023-09-19T07:05:10;4.16;3.75;3.01;1.98;15.91;15.87;15.68;14.66;11.29;0.75
68492;SPS30;55483;51.106;5.984;2023-09-19T07:07:36;3.78;3.42;2.75;1.82;14.65;14.61;14.44;13.52;10.45;0.76
68492;SPS30;55483;51.106;5.984;2023-09-19T07:10:02;3.88;3.54;2.93;2.05;16.46;16.42;16.27;15.41;12.19;0.72
68492;SPS30;55483;51.106;5.984;2023-09-19T07:12:31;3.36;3.08;2.58;1.84;14.76;14.73;14.60;13.89;11.07;0.69
68492;SPS30;55483;51.106;5.984;2023-09-19T07:14:58;3.25;2.99;2.52;1.82;14.62;14.59;14.47;13.81;11.07;0.69
68492;SPS30;55483;51.106;5.984;2023-09-19T07:17:23;3.60;3.30;2.76;1.96;15.75;15.72;15.58;14.81;11.80;0.70
68492;SPS30;55483;51.106;5.984;2023-09-19T07:19:49;3.65;3.32;2.72;1.85;14.92;14.88;14.73;13.89;10.88;0.74
68492;SPS30;55483;51.106;5.984;2023-09-19T07:22:15;3.63;3.30;2.70;1.84;14.78;14.74;14.58;13.75;10.76;0.73
68492;SPS30;55483;51.106;5.984;2023-09-19T07:24:41;3.39;3.09;2.56;1.78;14.32;14.28;14.14;13.39;10.58;0.72
68492;SPS30;55483;51.106;5.984;2023-09-19T07:27:06;3.81;3.49;2.90;2.04;16.39;16.35;16.20;15.37;12.19;0.71
68492;SPS30;55483;51.106;5.984;2023-09-19T07:29:32;3.54;3.22;2.64;1.80;14.48;14.44;14.29;13.47;10.56;0.74
68492;SPS30;55483;51.106;5.984;2023-09-19T07:31:57;3.80;3.45;2.82;1.91;15.35;15.31;15.15;14.27;11.15;0.75
68492;SPS30;55483;51.106;5.984;2023-09-19T07:34:23;4.00;3.62;2.93;1.96;15.76;15.72;15.54;14.59;11.33;0.78
68492;SPS30;55483;51.106;5.984;2023-09-19T07:36:49;3.46;3.14;2.57;1.74;14.02;13.99;13.84;13.04;10.20;0.77
68492;SPS30;55483;51.106;5.984;2023-09-19T07:39:15;3.88;3.53;2.88;1.96;15.78;15.74;15.58;14.68;11.49;0.75
68492;SPS30;55483;51.106;5.984;2023-09-19T07:41:41;3.77;3.42;2.79;1.89;15.24;15.20;15.03;14.16;11.07;0.75
68492;SPS30;55483;51.106;5.984;2023-09-19T07:44:07;4.55;4.09;3.26;2.10;16.88;16.83;16.62;15.47;11.81;0.79
68492;SPS30;55483;51.106;5.984;2023-09-19T07:46:34;4.40;3.97;3.17;2.06;16.56;16.50;16.30;15.20;11.65;0.77
68492;SPS30;55483;51.106;5.984;2023-09-19T07:48:59;4.12;3.72;3.00;1.99;16.01;15.97;15.78;14.79;11.44;0.76
68492;SPS30;55483;51.106;5.984;2023-09-19T07:51:25;4.28;3.86;3.09;2.02;16.24;16.19;16.00;14.94;11.48;0.77
68492;SPS30;55483;51.106;5.984;2023-09-19T07:53:52;3.95;3.58;2.91;1.95;15.68;15.64;15.46;14.53;11.30;0.75
68492;SPS30;55483;51.106;5.984;2023-09-19T07:56:18;3.74;3.39;2.76;1.86;14.94;14.89;14.73;13.85;10.79;0.74
68492;SPS30;55483;51.106;5.984;2023-09-19T07:58:45;3.78;3.41;2.73;1.77;14.28;14.24;14.07;13.13;10.07;0.76
68492;SPS30;55483;51.106;5.984;2023-09-19T08:01:12;4.58;4.09;3.21;1.98;16.01;15.95;15.73;14.52;10.89;0.79
68492;SPS30;55483;51.106;5.984;2023-09-19T08:03:38;4.01;3.60;2.86;1.82;14.63;14.58;14.39;13.36;10.15;0.77
68492;SPS30;55483;51.106;5.984;2023-09-19T08:06:06;3.93;3.53;2.80;1.78;14.35;14.31;14.12;13.12;9.97;0.78
68492;SPS30;55483;51.106;5.984;2023-09-19T08:08:33;3.43;3.07;2.42;1.52;12.27;12.23;12.06;11.17;8.44;0.80
68492;SPS30;55483;51.106;5.984;2023-09-19T08:11:05;4.42;3.95;3.11;1.93;15.58;15.52;15.31;14.14;10.63;0.80
68492;SPS30;55483;51.106;5.984;2023-09-19T08:13:40;4.43;3.99;3.17;2.04;16.43;16.38;16.18;15.06;11.49;0.78
68492;SPS30;55483;51.106;5.984;2023-09-19T08:16:12;3.77;3.40;2.73;1.80;14.46;14.42;14.25;13.33;10.28;0.78
68492;SPS30;55483;51.106;5.984;2023-09-19T08:18:40;3.85;3.48;2.79;1.83;14.72;14.67;14.50;13.55;10.43;0.77
68492;SPS30;55483;51.106;5.984;2023-09-19T08:21:06;3.44;3.12;2.53;1.71;13.73;13.69;13.54;12.73;9.92;0.74
68492;SPS30;55483;51.106;5.984;2023-09-19T08:23:35;3.83;3.48;2.85;1.95;15.65;15.61;15.45;14.57;11.42;0.73
68492;SPS30;55483;51.106;5.984;2023-09-19T08:26:01;3.76;3.42;2.81;1.93;15.52;15.48;15.32;14.47;11.37;0.75
68492;SPS30;55483;51.106;5.984;2023-09-19T08:28:32;3.62;3.28;2.64;1.75;14.07;14.03;13.87;13.00;10.05;0.78
68492;SPS30;55483;51.106;5.984;2023-09-19T08:31:04;3.40;3.07;2.48;1.64;13.17;13.13;12.98;12.15;9.39;0.77
68492;SPS30;55483;51.106;5.984;2023-09-19T08:33:31;3.89;3.52;2.85;1.90;15.29;15.25;15.08;14.15;10.98;0.76
68492;SPS30;55483;51.106;5.984;2023-09-19T08:35:58;3.78;3.42;2.76;1.82;14.69;14.65;14.48;13.56;10.49;0.76
68492;SPS30;55483;51.106;5.984;2023-09-19T08:38:23;3.42;3.09;2.49;1.64;13.22;13.18;13.03;12.20;9.42;0.77
68492;SPS30;55483;51.106;5.984;2023-09-19T08:40:49;3.41;3.09;2.51;1.68;13.52;13.48;13.34;12.53;9.74;0.76
68492;SPS30;55483;51.106;5.984;2023-09-19T08:43:15;3.17;2.88;2.37;1.63;13.14;13.11;12.98;12.26;9.65;0.74
68492;SPS30;55483;51.106;5.984;2023-09-19T08:45:40;3.63;3.31;2.72;1.88;15.12;15.08;14.93;14.11;11.11;0.74
68492;SPS30;55483;51.106;5.984;2023-09-19T08:50:57;3.27;2.99;2.48;1.74;14.00;13.97;13.84;13.12;10.40;0.72
68492;SPS30;55483;51.106;5.984;2023-09-19T08:53:41;3.43;3.13;2.58;1.78;14.33;14.30;14.16;13.39;10.55;0.72
68492;SPS30;55483;51.106;5.984;2023-09-19T08:56:16;3.11;2.84;2.34;1.63;13.08;13.05;12.92;12.23;9.65;0.72
68492;SPS30;55483;51.106;5.984;2023-09-19T08:58:48;3.30;3.01;2.50;1.75;14.06;14.02;13.89;13.17;10.43;0.71
68492;SPS30;55483;51.106;5.984;2023-09-19T09:01:20;3.76;3.41;2.78;1.88;15.09;15.05;14.89;14.01;10.93;0.72
68492;SPS30;55483;51.106;5.984;2023-09-19T09:03:50;4.30;3.88;3.11;2.04;16.39;16.34;16.15;15.09;11.61;0.74
68492;SPS30;55483;51.106;5.984;2023-09-19T09:06:18;4.15;3.75;3.02;2.00;16.08;16.03;15.85;14.84;11.48;0.75
68492;SPS30;55483;51.106;5.984;2023-09-19T09:08:45;3.66;3.32;2.70;1.81;14.59;14.55;14.39;13.53;10.53;0.74
68492;SPS30;55483;51.106;5.984;2023-09-19T09:11:13;3.07;2.79;2.27;1.54;12.38;12.35;12.22;11.50;8.98;0.73
68492;SPS30;55483;51.106;5.984;2023-09-19T09:13:41;3.23;2.94;2.41;1.66;13.38;13.34;13.21;12.48;9.82;0.72
68492;SPS30;55483;51.106;5.984;2023-09-19T09:16:09;3.84;3.48;2.83;1.91;15.36;15.32;15.15;14.25;11.10;0.74
68492;SPS30;55483;51.106;5.984;2023-09-19T09:18:36;3.38;3.09;2.57;1.81;14.53;14.49;14.36;13.63;10.81;0.70
68492;SPS30;55483;51.106;5.984;2023-09-19T09:21:02;3.45;3.15;2.61;1.82;14.64;14.60;14.46;13.70;10.84;0.72
68492;SPS30;55483;51.106;5.984;2023-09-19T09:23:29;3.54;3.22;2.64;1.81;14.58;14.55;14.40;13.59;10.67;0.73
68492;SPS30;55483;51.106;5.984;2023-09-19T09:25:57;3.75;3.40;2.78;1.88;15.13;15.09;14.93;14.06;10.98;0.74
68492;SPS30;55483;51.106;5.984;2023-09-19T09:28:27;3.39;3.09;2.55;1.77;14.26;14.22;14.09;13.33;10.52;0.74
68492;SPS30;55483;51.106;5.984;2023-09-19T09:30:54;3.37;3.07;2.54;1.76;14.16;14.13;13.99;13.24;10.45;0.73
68492;SPS30;55483;51.106;5.984;2023-09-19T09:33:20;3.04;2.77;2.28;1.58;12.73;12.70;12.58;11.90;9.38;0.73